Terminal Aerodrome Forecast
Issued by NWS Jacksonville, FL

Home | Current Version | Previous Version | Text Only | Print | Product List | Glossary On
Versions: 1 2 3 4 5 6 7 8 9 10 11 12 13 14 15 16 17
000
FTUS42 KJAX 301721
TAFSSI
TAF
KSSI 301721Z 3018/3118 09011KT P6SM VCSH SCT030 BKN050
     FM310200 10008KT P6SM SCT030
     FM310600 12004KT P6SM SCT020
     FM311400 11009KT P6SM BKN030=

USA.gov is the U.S. government's official web portal to all federal, state and local government web resources and services.